Time;durP1;ratioP1;P1;durP2;ratioP2;P2;SDS_P1;SDS_P2;PMS_P1;PMS_P2;Temp;Humidity;BMP_temperature;BMP_pressure;BME280_temperature;BME280_humidity;BME280_pressure;Samples;Min_cycle;Max_cycle;Signal;HPM_P1;HPM_P2
2022/09/30 04:02:39;;;;;;;4.97;4.45;;;8.30;99.90;;;;;;6240076;23;20198;-71
2022/09/30 04:05:08;;;;;;;5.95;4.90;;;8.30;99.90;;;;;;6242733;23;20262;-71
2022/09/30 04:07:35;;;;;;;5.88;5.43;;;8.20;99.90;;;;;;6243051;23;20203;-71
2022/09/30 04:10:02;;;;;;;7.53;5.30;;;8.20;99.90;;;;;;6243094;23;20179;-71
2022/09/30 04:12:28;;;;;;;7.40;4.97;;;8.20;99.90;;;;;;6241981;23;20202;-71
2022/09/30 04:14:55;;;;;;;6.07;5.15;;;8.20;99.90;;;;;;6242753;23;20186;-71
2022/09/30 04:17:22;;;;;;;4.63;4.22;;;8.10;99.90;;;;;;6242304;23;20187;-71
2022/09/30 04:19:50;;;;;;;7.10;5.07;;;8.10;99.90;;;;;;6242684;23;20183;-71
2022/09/30 04:22:17;;;;;;;16.02;6.60;;;8.10;99.90;;;;;;6242982;23;20206;-71
2022/09/30 04:24:44;;;;;;;4.15;3.85;;;8.10;99.90;;;;;;6252606;23;20175;-71
2022/09/30 04:27:10;;;;;;;5.60;5.18;;;8.00;99.90;;;;;;6242414;23;20234;-71
2022/09/30 04:29:37;;;;;;;5.45;4.90;;;8.00;99.90;;;;;;6243021;23;20187;-71
2022/09/30 04:32:04;;;;;;;5.03;4.72;;;8.00;99.90;;;;;;6242889;23;20202;-71
2022/09/30 04:34:30;;;;;;;6.78;4.07;;;8.00;99.90;;;;;;6242433;23;20517;-71
2022/09/30 04:36:58;;;;;;;5.47;4.90;;;8.00;99.90;;;;;;6242223;23;20179;-71
2022/09/30 04:39:25;;;;;;;4.43;4.03;;;8.00;99.90;;;;;;6243360;23;20559;-71
2022/09/30 04:41:52;;;;;;;5.20;4.80;;;7.90;99.90;;;;;;6241603;23;20198;-70
2022/09/30 04:44:19;;;;;;;6.95;6.30;;;7.90;99.90;;;;;;6242921;23;20194;-70
2022/09/30 04:46:46;;;;;;;5.90;5.40;;;7.90;99.90;;;;;;6242354;23;20211;-71
2022/09/30 04:49:13;;;;;;;6.30;5.65;;;7.90;99.90;;;;;;6242899;23;20178;-71
2022/09/30 04:51:42;;;;;;;8.18;5.35;;;7.90;99.90;;;;;;6242079;23;20205;-70
2022/09/30 04:54:10;;;;;;;9.70;5.32;;;7.90;99.90;;;;;;6241982;23;20676;-70
2022/09/30 04:56:37;;;;;;;4.45;4.20;;;7.90;99.90;;;;;;6242395;23;20178;-70
2022/09/30 04:59:04;;;;;;;5.72;5.15;;;7.80;99.90;;;;;;6243008;23;20513;-71
2022/09/30 05:01:31;;;;;;;6.43;5.85;;;7.80;99.90;;;;;;6241376;23;20582;-70
2022/09/30 05:03:58;;;;;;;5.30;4.82;;;7.80;99.90;;;;;;6251623;23;20186;-71
2022/09/30 05:06:24;;;;;;;5.70;5.18;;;7.80;99.90;;;;;;6242688;23;20188;-71
2022/09/30 05:08:51;;;;;;;6.18;4.78;;;7.80;99.90;;;;;;6242137;23;20178;-70
2022/09/30 05:11:21;;;;;;;8.70;5.45;;;7.70;99.90;;;;;;6241311;23;20209;-71
2022/09/30 05:13:49;;;;;;;6.32;4.57;;;7.70;99.90;;;;;;6242319;23;20186;-71
2022/09/30 05:16:17;;;;;;;5.40;4.90;;;7.70;99.90;;;;;;6241828;23;20632;-71
2022/09/30 05:18:45;;;;;;;5.50;4.95;;;7.70;99.90;;;;;;6242286;23;20489;-70
2022/09/30 05:21:13;;;;;;;8.45;5.85;;;7.70;99.90;;;;;;6251766;23;20250;-70
2022/09/30 05:23:40;;;;;;;5.45;4.40;;;7.70;99.90;;;;;;6242595;23;20183;-71
2022/09/30 05:26:07;;;;;;;3.78;3.45;;;7.70;99.90;;;;;;6244487;23;20183;-70
2022/09/30 05:28:35;;;;;;;20.63;12.45;;;7.70;99.90;;;;;;6243358;23;20202;-69
2022/09/30 05:31:05;;;;;;;31.95;16.25;;;7.70;99.90;;;;;;6242121;23;20278;-69
2022/09/30 05:33:33;;;;;;;51.85;28.75;;;7.70;99.90;;;;;;6242672;23;20184;-69
2022/09/30 05:36:01;;;;;;;33.50;18.52;;;7.70;99.90;;;;;;6244763;23;20183;-70
2022/09/30 05:38:28;;;;;;;21.17;14.43;;;7.70;99.90;;;;;;6244016;23;20182;-70
2022/09/30 05:40:55;;;;;;;31.40;20.60;;;7.70;99.90;;;;;;6243057;23;20210;-70
2022/09/30 05:43:22;;;;;;;17.48;12.70;;;7.80;99.90;;;;;;6240942;23;20187;-69
2022/09/30 05:45:54;;;;;;;14.13;10.00;;;7.80;99.90;;;;;;6240954;23;20178;-70
2022/09/30 05:48:21;;;;;;;10.65;8.27;;;7.80;99.90;;;;;;6242676;23;20207;-70
2022/09/30 05:50:49;;;;;;;8.07;7.25;;;7.90;99.90;;;;;;6241389;23;20206;-70
2022/09/30 05:53:17;;;;;;;15.00;10.38;;;7.90;99.90;;;;;;6243534;23;20899;-71
2022/09/30 05:55:46;;;;;;;23.83;8.85;;;7.90;99.90;;;;;;6243010;23;20186;-70
2022/09/30 05:58:13;;;;;;;10.23;5.60;;;8.00;99.90;;;;;;6243264;23;20633;-70
2022/09/30 06:00:41;;;;;;;5.63;5.22;;;8.00;99.90;;;;;;6240949;23;20212;-71
2022/09/30 06:03:09;;;;;;;7.22;6.53;;;8.00;99.90;;;;;;6242033;23;20206;-70
2022/09/30 06:05:36;;;;;;;8.15;7.22;;;8.00;99.90;;;;;;6242044;23;20184;-71
2022/09/30 06:08:05;;;;;;;8.68;7.78;;;8.10;99.90;;;;;;6240728;23;20203;-70
2022/09/30 06:10:33;;;;;;;6.47;5.88;;;8.10;99.90;;;;;;6243393;23;20265;-71
2022/09/30 06:13:00;;;;;;;8.13;6.40;;;8.10;99.90;;;;;;6240232;23;20193;-70
2022/09/30 06:15:26;;;;;;;8.20;6.53;;;8.10;99.90;;;;;;6241856;23;20183;-70
2022/09/30 06:17:54;;;;;;;7.70;7.10;;;8.10;99.90;;;;;;6241855;23;20179;-70
2022/09/30 06:20:22;;;;;;;8.52;6.60;;;8.10;99.90;;;;;;6241348;23;20206;-70
2022/09/30 06:22:49;;;;;;;10.20;9.15;;;8.20;99.90;;;;;;6241320;23;20211;-70
2022/09/30 06:25:16;;;;;;;8.35;7.55;;;8.30;99.90;;;;;;6242220;23;20180;-70
2022/09/30 06:27:45;;;;;;;9.57;7.40;;;8.30;99.90;;;;;;6243975;23;20230;-70
2022/09/30 06:30:12;;;;;;;9.32;7.25;;;8.30;99.90;;;;;;6243745;23;20184;-70
2022/09/30 06:32:39;;;;;;;11.63;8.02;;;8.40;99.90;;;;;;6244002;23;20184;-70
2022/09/30 06:35:06;;;;;;;9.43;5.35;;;8.40;99.90;;;;;;6243531;23;20183;-70
2022/09/30 06:37:35;;;;;;;8.63;7.30;;;8.50;99.90;;;;;;6244001;23;20184;-70
2022/09/30 06:40:03;;;;;;;14.98;9.10;;;8.50;99.90;;;;;;6243810;23;20274;-71
2022/09/30 06:42:29;;;;;;;8.77;5.55;;;8.50;99.90;;;;;;6243864;23;20200;-69
2022/09/30 06:44:56;;;;;;;13.82;10.30;;;8.50;99.90;;;;;;6243457;23;20539;-70
2022/09/30 06:47:23;;;;;;;16.85;13.55;;;8.60;99.90;;;;;;6243664;23;20300;-70
2022/09/30 06:49:51;;;;;;;12.20;8.25;;;8.60;99.90;;;;;;6242579;23;20180;-70
2022/09/30 06:52:18;;;;;;;8.88;7.40;;;8.60;99.90;;;;;;6243712;23;20203;-70
2022/09/30 06:54:48;;;;;;;14.05;7.10;;;8.60;99.90;;;;;;6240794;23;20190;-70
2022/09/30 06:57:15;;;;;;;9.93;8.05;;;8.70;99.90;;;;;;6243066;23;20216;-70
2022/09/30 06:59:43;;;;;;;9.02;7.40;;;8.70;99.90;;;;;;6242577;23;20184;-70
2022/09/30 07:02:12;;;;;;;8.80;6.07;;;8.70;99.90;;;;;;6241990;23;20759;-70
2022/09/30 07:04:39;;;;;;;13.75;7.13;;;8.80;99.90;;;;;;6242152;23;20207;-70
2022/09/30 07:07:06;;;;;;;12.55;8.05;;;8.90;99.90;;;;;;6243408;23;20199;-69
2022/09/30 07:09:32;;;;;;;8.52;7.82;;;9.00;99.90;;;;;;6243612;23;20224;-70
2022/09/30 07:12:01;;;;;;;12.60;6.18;;;9.20;99.90;;;;;;6243157;23;20283;-69
2022/09/30 07:14:29;;;;;;;7.18;6.03;;;9.30;99.90;;;;;;6242745;23;20179;-70
2022/09/30 07:16:56;;;;;;;11.85;6.93;;;9.50;99.90;;;;;;6243651;23;20266;-70
2022/09/30 07:19:23;;;;;;;10.00;9.02;;;9.60;99.90;;;;;;6245868;23;20180;-70
2022/09/30 07:21:50;;;;;;;12.65;7.45;;;9.60;99.90;;;;;;6245969;23;20212;-70
2022/09/30 07:24:17;;;;;;;12.50;8.05;;;9.70;99.90;;;;;;6254388;23;20512;-70
2022/09/30 07:26:44;;;;;;;7.93;6.38;;;9.70;99.90;;;;;;6247167;23;20183;-70
2022/09/30 07:29:12;;;;;;;12.18;8.38;;;9.70;99.90;;;;;;6250124;23;20199;-71
2022/09/30 07:31:40;;;;;;;9.15;7.45;;;9.60;99.90;;;;;;6249825;23;20262;-71
2022/09/30 07:34:08;;;;;;;10.45;7.30;;;9.70;99.90;;;;;;6243105;23;20259;-71
2022/09/30 07:36:40;;;;;;;11.38;7.47;;;9.70;99.90;;;;;;6242543;23;20639;-71
2022/09/30 07:39:09;;;;;;;14.13;9.32;;;9.70;99.90;;;;;;6242889;23;20165;-70
2022/09/30 07:41:38;;;;;;;8.75;7.15;;;9.70;99.90;;;;;;6243430;23;20207;-70
2022/09/30 07:44:05;;;;;;;14.63;7.32;;;9.70;99.90;;;;;;6243407;23;20184;-70
2022/09/30 07:46:37;;;;;;;14.43;10.35;;;9.70;99.90;;;;;;6243132;23;20250;-70
2022/09/30 07:49:06;;;;;;;11.38;7.82;;;9.70;99.90;;;;;;6241851;23;20725;-70
2022/09/30 07:51:34;;;;;;;11.38;9.50;;;9.80;99.90;;;;;;6243268;23;20204;-71
2022/09/30 07:54:05;;;;;;;12.48;8.68;;;9.80;99.90;;;;;;6241614;23;20187;-70
2022/09/30 07:56:32;;;;;;;14.00;10.70;;;9.80;99.90;;;;;;6245520;23;20181;-71
2022/09/30 07:59:01;;;;;;;12.55;9.30;;;9.80;99.90;;;;;;6244417;23;20717;-71
2022/09/30 08:01:30;;;;;;;21.85;11.07;;;9.90;99.90;;;;;;6245083;23;20212;-71
2022/09/30 08:04:00;;;;;;;19.70;11.05;;;10.00;99.90;;;;;;6244093;23;20203;-69
2022/09/30 08:06:29;;;;;;;16.35;12.57;;;10.00;99.90;;;;;;6244209;23;20165;-69
2022/09/30 08:08:57;;;;;;;14.90;10.30;;;10.10;99.90;;;;;;6241888;23;20211;-71
2022/09/30 08:11:25;;;;;;;13.80;11.35;;;10.10;99.90;;;;;;6243651;23;20200;-69
2022/09/30 08:13:52;;;;;;;16.42;11.50;;;10.10;99.90;;;;;;6243012;23;20180;-71
2022/09/30 08:16:19;;;;;;;14.63;9.75;;;10.20;99.90;;;;;;6243155;23;20185;-70
2022/09/30 08:18:47;;;;;;;16.55;10.93;;;10.20;99.90;;;;;;6241864;23;20212;-70
2022/09/30 08:21:15;;;;;;;12.68;10.07;;;10.30;99.90;;;;;;6242612;23;20199;-70
2022/09/30 08:23:42;;;;;;;19.55;10.73;;;10.50;99.90;;;;;;6241831;23;20263;-69
2022/09/30 08:26:11;;;;;;;14.57;11.43;;;10.60;99.90;;;;;;6243464;23;20186;-69
2022/09/30 08:28:39;;;;;;;21.63;11.85;;;10.70;99.90;;;;;;6242406;23;20279;-69
2022/09/30 08:31:07;;;;;;;16.70;12.13;;;10.70;99.90;;;;;;6242921;23;20507;-71
2022/09/30 08:33:34;;;;;;;15.68;10.73;;;10.80;99.90;;;;;;6242296;23;20184;-71
2022/09/30 08:36:06;;;;;;;17.08;10.93;;;10.90;99.90;;;;;;6243503;23;20520;-71
2022/09/30 08:38:34;;;;;;;15.25;10.98;;;11.00;99.90;;;;;;6251840;23;20260;-71
2022/09/30 08:41:18;;;;;;;16.80;11.48;;;11.00;99.90;;;;;;6242595;23;20206;-70
2022/09/30 08:43:58;;;;;;;12.77;10.00;;;11.10;99.90;;;;;;6242246;23;20164;-72
2022/09/30 08:46:39;;;;;;;15.60;10.85;;;11.20;99.90;;;;;;6241663;23;20683;-70
2022/09/30 08:49:20;;;;;;;15.85;10.80;;;11.30;99.90;;;;;;6241219;23;20525;-70
2022/09/30 08:51:49;;;;;;;18.42;12.85;;;11.30;99.90;;;;;;6242477;23;20235;-70
2022/09/30 08:54:20;;;;;;;24.52;10.63;;;11.50;99.90;;;;;;6242964;23;20184;-70
2022/09/30 08:56:47;;;;;;;15.50;9.35;;;11.50;99.90;;;;;;6242790;23;20170;-71
2022/09/30 08:59:27;;;;;;;13.65;10.65;;;11.60;99.90;;;;;;6243460;23;20182;-70
2022/09/30 09:01:59;;;;;;;20.08;12.38;;;11.60;99.90;;;;;;6241841;23;20213;-70
2022/09/30 09:04:26;;;;;;;11.80;10.43;;;11.70;99.90;;;;;;6241881;23;20665;-71
2022/09/30 09:06:58;;;;;;;12.15;8.35;;;11.80;99.90;;;;;;6242719;23;20184;-70
2022/09/30 09:09:45;;;;;;;15.27;10.93;;;11.90;99.90;;;;;;6242527;23;20193;-71
2022/09/30 09:12:23;;;;;;;12.18;8.93;;;12.00;99.90;;;;;;6242810;23;20221;-70
2022/09/30 09:15:13;;;;;;;18.33;11.73;;;12.10;99.90;;;;;;6241436;23;20206;-72
2022/09/30 09:17:57;;;;;;;11.10;8.98;;;12.10;99.90;;;;;;6241801;23;20185;-72
2022/09/30 09:20:32;;;;;;;15.35;8.55;;;12.30;99.90;;;;;;6252288;23;20166;-71
2022/09/30 09:23:02;;;;;;;12.93;8.35;;;12.40;99.90;;;;;;6241831;23;20171;-71
2022/09/30 09:25:30;;;;;;;13.23;8.70;;;12.50;99.90;;;;;;6242597;23;20258;-71
2022/09/30 09:27:59;;;;;;;12.77;7.80;;;12.60;99.90;;;;;;6241442;23;20206;-71
2022/09/30 09:30:29;;;;;;;8.03;7.20;;;12.60;99.90;;;;;;6242076;23;20257;-71
2022/09/30 09:33:00;;;;;;;9.40;6.57;;;12.70;99.90;;;;;;6241211;23;20513;-70
2022/09/30 09:35:40;;;;;;;6.23;4.43;;;12.70;99.90;;;;;;6242299;23;20716;-70
2022/09/30 09:38:24;;;;;;;7.07;6.33;;;12.80;99.90;;;;;;6242242;23;20410;-70
2022/09/30 09:41:06;;;;;;;7.00;6.00;;;12.90;99.90;;;;;;6242283;23;20441;-70
2022/09/30 09:43:45;;;;;;;13.07;5.57;;;13.00;99.90;;;;;;6241684;23;20441;-69
2022/09/30 09:46:19;;;;;;;4.63;4.23;;;13.10;99.90;;;;;;6241869;23;20405;-70
2022/09/30 09:48:45;;;;;;;6.53;4.23;;;13.10;99.90;;;;;;6241802;23;20434;-70
2022/09/30 09:51:21;;;;;;;5.10;4.70;;;13.10;99.90;;;;;;6241063;23;20445;-70
2022/09/30 09:53:51;;;;;;;6.00;3.87;;;13.20;99.90;;;;;;6243162;23;20406;-69
2022/09/30 09:56:22;;;;;;;3.27;3.07;;;13.20;99.90;;;;;;6242821;23;20414;-70
2022/09/30 09:59:05;;;;;;;5.00;4.37;;;13.20;99.90;;;;;;6242234;23;20457;-69
2022/09/30 10:01:32;;;;;;;4.70;3.70;;;13.30;99.90;;;;;;6242486;23;20449;-70
2022/09/30 10:04:15;;;;;;;4.13;3.17;;;13.30;99.90;;;;;;6243812;23;20780;-70
2022/09/30 10:06:53;;;;;;;3.20;2.90;;;13.40;99.90;;;;;;6253509;23;20425;-70
2022/09/30 10:09:33;;;;;;;3.47;3.27;;;13.40;99.90;;;;;;6243932;23;20610;-70
2022/09/30 10:12:28;;;;;;;2.63;2.43;;;13.50;99.90;;;;;;6244335;23;20446;-71
2022/09/30 10:14:59;;;;;;;3.50;3.30;;;13.60;99.90;;;;;;6243899;23;20438;-71
2022/09/30 10:17:29;;;;;;;2.47;2.27;;;13.60;99.90;;;;;;6242692;22;20410;-68
2022/09/30 10:20:00;;;;;;;2.53;2.43;;;13.70;99.90;;;;;;6243649;23;20739;-67
2022/09/30 10:22:29;;;;;;;3.07;2.87;;;13.80;99.90;;;;;;6244735;23;20406;-68
2022/09/30 10:25:16;;;;;;;2.07;2.00;;;13.90;99.90;;;;;;6243789;23;20756;-68
2022/09/30 10:27:53;;;;;;;2.83;2.73;;;14.00;99.90;;;;;;6242035;22;20519;-67
2022/09/30 10:30:35;;;;;;;2.70;2.60;;;14.10;99.90;;;;;;6243951;23;20402;-66
2022/09/30 10:33:03;;;;;;;4.03;3.50;;;14.10;99.90;;;;;;6242752;23;20406;-67
2022/09/30 10:35:30;;;;;;;2.07;2.03;;;14.00;99.90;;;;;;6243505;23;20420;-68
2022/09/30 10:37:59;;;;;;;2.97;2.77;;;14.00;99.90;;;;;;6242649;22;20524;-68
2022/09/30 10:40:30;;;;;;;2.30;2.20;;;14.00;99.90;;;;;;6244041;23;20424;-68
2022/09/30 10:42:58;;;;;;;3.30;2.20;;;14.00;99.90;;;;;;6243905;23;20711;-67
2022/09/30 10:45:32;;;;;;;1.60;1.50;;;14.00;99.90;;;;;;6243081;23;20536;-68
2022/09/30 10:48:05;;;;;;;1.57;1.50;;;13.90;99.90;;;;;;6242343;22;21108;-67
2022/09/30 10:50:32;;;;;;;1.40;1.30;;;13.90;99.90;;;;;;6243344;23;20903;-67
2022/09/30 10:53:03;;;;;;;1.10;1.10;;;14.00;99.90;;;;;;6242917;23;20501;-67
2022/09/30 10:55:33;;;;;;;0.73;0.73;;;14.20;99.90;;;;;;6243763;23;20426;-67
2022/09/30 10:58:22;;;;;;;0.87;0.87;;;14.40;99.90;;;;;;6244123;22;20449;-68
2022/09/30 11:00:53;;;;;;;0.90;0.90;;;14.50;99.90;;;;;;6243573;23;20412;-67
2022/09/30 11:03:24;;;;;;;0.60;0.60;;;14.60;99.90;;;;;;6241577;23;20411;-68
2022/09/30 11:05:51;;;;;;;0.60;0.60;;;14.60;99.90;;;;;;6243629;23;20421;-67
2022/09/30 11:08:22;;;;;;;1.20;1.20;;;14.50;99.90;;;;;;6241633;22;20971;-68
2022/09/30 11:10:53;;;;;;;0.83;0.83;;;14.50;99.90;;;;;;6243509;23;20429;-68
2022/09/30 11:13:27;;;;;;;0.90;0.90;;;14.50;99.90;;;;;;6241799;23;20415;-70
2022/09/30 11:16:01;;;;;;;0.70;0.70;;;14.60;99.90;;;;;;6243367;23;20404;-67
2022/09/30 11:18:34;;;;;;;3.40;0.97;;;14.70;99.90;;;;;;6241480;22;21037;-68
2022/09/30 11:21:06;;;;;;;0.97;0.97;;;14.90;99.90;;;;;;6243412;23;20743;-68
2022/09/30 11:23:37;;;;;;;0.90;0.90;;;15.10;99.90;;;;;;6242034;23;20870;-67
2022/09/30 11:26:10;;;;;;;0.97;0.97;;;15.10;99.90;;;;;;6242719;23;20411;-68
2022/09/30 11:28:58;;;;;;;0.73;0.73;;;15.20;99.90;;;;;;6242300;22;20458;-67
2022/09/30 11:31:31;;;;;;;1.10;1.10;;;15.20;99.90;;;;;;6241498;23;20445;-66
2022/09/30 11:34:24;;;;;;;0.70;0.70;;;15.10;99.90;;;;;;6242086;23;20406;-66
2022/09/30 11:37:00;;;;;;;1.30;1.23;;;15.00;99.90;;;;;;6238556;23;20424;-67
2022/09/30 11:39:55;;;;;;;1.00;1.00;;;14.80;99.90;;;;;;6242629;22;20761;-66
2022/09/30 11:42:31;;;;;;;0.90;0.90;;;14.60;99.90;;;;;;6241025;23;20434;-67
2022/09/30 11:45:08;;;;;;;0.83;0.70;;;14.50;99.90;;;;;;6242857;23;20503;-66
2022/09/30 11:47:49;;;;;;;0.70;0.70;;;14.40;99.90;;;;;;6242051;22;20412;-68
2022/09/30 11:50:28;;;;;;;0.70;0.70;;;14.50;99.90;;;;;;6240845;23;20439;-68
2022/09/30 11:53:05;;;;;;;0.90;0.90;;;14.50;99.90;;;;;;6242266;23;20411;-68
2022/09/30 11:55:43;;;;;;;2.77;1.40;;;14.50;99.90;;;;;;6241909;23;20412;-68
2022/09/30 11:58:14;;;;;;;1.20;1.20;;;14.50;99.90;;;;;;6241705;22;20462;-68
2022/09/30 12:00:47;;;;;;;2.10;1.40;;;14.60;99.90;;;;;;6252072;23;20983;-67
2022/09/30 12:03:22;;;;;;;1.70;1.70;;;14.70;99.90;;;;;;6242346;23;20443;-67
2022/09/30 12:05:54;;;;;;;1.73;1.73;;;14.90;99.90;;;;;;6242244;23;20875;-68
2022/09/30 12:08:29;;;;;;;0.90;0.90;;;15.00;99.90;;;;;;6242788;22;20454;-67
2022/09/30 12:10:59;;;;;;;4.10;1.10;;;15.00;99.90;;;;;;6241637;23;20414;-70
2022/09/30 12:13:31;;;;;;;1.07;1.07;;;15.00;99.90;;;;;;6241402;23;20699;-68
2022/09/30 12:16:03;;;;;;;1.20;1.20;;;15.10;99.90;;;;;;6241388;23;20412;-68
2022/09/30 12:18:34;;;;;;;1.60;1.60;;;15.30;99.90;;;;;;6241768;22;20448;-68
2022/09/30 12:21:03;;;;;;;1.20;1.20;;;15.40;99.90;;;;;;6241556;23;20420;-68
2022/09/30 12:23:33;;;;;;;1.43;1.43;;;15.50;99.90;;;;;;6241658;23;20445;-67
2022/09/30 12:26:02;;;;;;;1.47;1.47;;;15.50;99.90;;;;;;6241588;23;20441;-67
2022/09/30 12:31:57;;;;;;;1.57;1.57;;;15.70;99.90;;;;;;6241475;23;20432;-68
2022/09/30 12:34:37;;;;;;;0.97;0.97;;;15.80;99.90;;;;;;6242135;23;20421;-68
2022/09/30 12:37:21;;;;;;;1.80;1.13;;;15.90;99.90;;;;;;6242406;23;20436;-68
2022/09/30 12:40:07;;;;;;;0.97;0.97;;;16.00;99.90;;;;;;6242825;23;20406;-68
2022/09/30 12:42:51;;;;;;;0.73;0.73;;;16.10;99.90;;;;;;6241825;23;20416;-68
2022/09/30 12:45:39;;;;;;;0.67;0.67;;;16.40;99.90;;;;;;6252828;23;20402;-69
2022/09/30 12:48:11;;;;;;;1.33;1.30;;;16.40;99.90;;;;;;6242375;22;20445;-67
2022/09/30 12:50:44;;;;;;;2.40;1.40;;;16.30;99.90;;;;;;6242457;23;21199;-67
2022/09/30 12:53:17;;;;;;;0.93;0.93;;;16.30;99.90;;;;;;6242044;23;20879;-68
2022/09/30 12:55:44;;;;;;;0.87;0.87;;;16.20;99.90;;;;;;6242439;23;20408;-67
2022/09/30 12:58:21;;;;;;;1.57;1.47;;;16.30;99.90;;;;;;6242089;22;20441;-68
2022/09/30 13:01:01;;;;;;;0.87;0.87;;;16.30;99.90;;;;;;6241888;23;20411;-67
2022/09/30 13:03:45;;;;;;;0.77;0.77;;;16.20;99.90;;;;;;6241819;23;20488;-67
2022/09/30 13:06:15;;;;;;;1.00;0.90;;;16.00;99.90;;;;;;6242346;23;20732;-67
2022/09/30 13:08:46;;;;;;;0.60;0.60;;;16.00;99.90;;;;;;6242479;22;20570;-68
2022/09/30 13:11:39;;;;;;;0.70;0.70;;;16.00;99.90;;;;;;6242388;23;20456;-67
2022/09/30 13:14:33;;;;;;;0.83;0.83;;;16.10;99.90;;;;;;6241461;23;20487;-67
2022/09/30 13:17:03;;;;;;;1.20;1.20;;;16.00;99.90;;;;;;6241951;23;20412;-67
2022/09/30 13:19:39;;;;;;;1.40;1.40;;;16.20;99.90;;;;;;6240628;22;20445;-67
2022/09/30 13:22:51;;;;;;;1.10;1.10;;;16.50;99.90;;;;;;6242227;23;20412;-67
2022/09/30 13:25:19;;;;;;;1.30;1.20;;;16.70;99.90;;;;;;6242345;23;20417;-67
2022/09/30 13:27:50;;;;;;;1.03;1.03;;;16.70;99.90;;;;;;6242187;22;20784;-69
2022/09/30 13:30:47;;;;;;;1.20;1.20;;;16.60;99.90;;;;;;6241621;23;20465;-68
2022/09/30 13:33:30;;;;;;;1.43;1.33;;;16.50;99.90;;;;;;6148267;23;20405;-69
2022/09/30 13:36:08;;;;;;;1.17;1.17;;;16.50;99.90;;;;;;6231929;23;20737;-68
2022/09/30 13:38:39;;;;;;;1.20;1.20;;;16.40;99.90;;;;;;6253925;22;20499;-68
2022/09/30 13:41:16;;;;;;;1.43;1.33;;;16.40;99.90;;;;;;6243926;23;20425;-67
2022/09/30 13:43:46;;;;;;;1.13;1.13;;;16.50;99.90;;;;;;6243371;23;20396;-68
2022/09/30 13:46:22;;;;;;;2.00;1.90;;;16.60;99.90;;;;;;6243149;23;20540;-68
2022/09/30 13:48:53;;;;;;;1.13;1.13;;;16.60;99.90;;;;;;6243047;22;20438;-67
2022/09/30 13:51:24;;;;;;;1.10;1.10;;;16.40;99.90;;;;;;6243397;23;20422;-68
2022/09/30 13:53:54;;;;;;;0.87;0.87;;;16.30;99.90;;;;;;6243314;23;20897;-67
2022/09/30 13:56:23;;;;;;;0.90;0.90;;;16.30;99.90;;;;;;6242833;23;20426;-68
2022/09/30 13:59:37;;;;;;;1.00;1.00;;;16.40;99.90;;;;;;6241800;22;20444;-68
2022/09/30 14:02:26;;;;;;;1.00;1.00;;;16.40;99.90;;;;;;6149755;23;20752;-67
2022/09/30 14:05:19;;;;;;;1.83;1.00;;;16.40;99.90;;;;;;6148440;23;20433;-68
2022/09/30 14:08:09;;;;;;;1.33;1.33;;;16.30;99.90;;;;;;6221919;22;20442;-67
2022/09/30 14:10:48;;;;;;;1.73;1.70;;;16.20;99.90;;;;;;6242471;23;20948;-68
2022/09/30 14:13:31;;;;;;;1.00;1.00;;;16.10;99.90;;;;;;6243722;23;20408;-68
2022/09/30 14:16:24;;;;;;;1.83;1.80;;;16.00;99.90;;;;;;6242091;23;20505;-66
2022/09/30 14:19:10;;;;;;;1.37;1.37;;;16.00;99.90;;;;;;6242628;22;20453;-66
2022/09/30 14:21:41;;;;;;;1.40;1.40;;;15.90;99.90;;;;;;6242772;23;20416;-70
2022/09/30 14:24:15;;;;;;;1.63;1.53;;;15.90;99.90;;;;;;6242253;23;20408;-68
2022/09/30 14:27:06;;;;;;;1.10;1.10;;;16.00;99.90;;;;;;6243265;23;20489;-69
2022/09/30 14:29:43;;;;;;;1.33;1.33;;;16.10;99.90;;;;;;6242513;22;20778;-68
2022/09/30 14:32:13;;;;;;;1.07;1.07;;;16.20;99.90;;;;;;6243443;23;20503;-67
2022/09/30 14:34:41;;;;;;;1.40;1.40;;;16.20;99.90;;;;;;6242846;23;20426;-69
2022/09/30 14:37:18;;;;;;;0.80;0.80;;;16.20;99.90;;;;;;6243053;23;20421;-69
2022/09/30 14:39:48;;;;;;;1.37;1.27;;;16.10;99.90;;;;;;6242815;22;20934;-67
2022/09/30 14:42:28;;;;;;;1.40;1.40;;;16.10;99.90;;;;;;6243086;23;20422;-69
2022/09/30 14:45:01;;;;;;;1.53;1.47;;;16.00;99.90;;;;;;6242583;23;20435;-68
2022/09/30 14:47:27;;;;;;;0.90;0.90;;;16.00;99.90;;;;;;6241785;22;20409;-69
2022/09/30 14:49:54;;;;;;;1.60;1.60;;;15.80;99.90;;;;;;6242760;23;20444;-68
2022/09/30 14:52:35;;;;;;;1.33;1.33;;;15.70;99.90;;;;;;6241300;23;20433;-68
2022/09/30 14:55:04;;;;;;;1.20;1.20;;;15.60;99.90;;;;;;6243075;23;20876;-69
2022/09/30 14:57:33;;;;;;;1.70;1.20;;;15.40;99.90;;;;;;6242535;22;20425;-68
2022/09/30 15:00:22;;;;;;;1.40;1.40;;;15.40;99.90;;;;;;6242541;23;20470;-68
2022/09/30 15:02:48;;;;;;;1.10;1.10;;;15.40;99.90;;;;;;6241907;23;20400;-68
2022/09/30 15:05:17;;;;;;;1.33;1.30;;;15.50;99.90;;;;;;6243679;23;20723;-69
2022/09/30 15:07:44;;;;;;;1.40;1.40;;;15.50;99.90;;;;;;6242768;22;20752;-67
2022/09/30 15:10:20;;;;;;;1.33;1.33;;;15.50;99.90;;;;;;6242688;23;20447;-69
2022/09/30 15:12:49;;;;;;;1.73;1.73;;;15.50;99.90;;;;;;6241691;23;20779;-68
2022/09/30 15:15:33;;;;;;;1.60;1.20;;;15.60;99.90;;;;;;6242600;23;20449;-67
2022/09/30 15:18:01;;;;;;;1.87;1.77;;;15.60;99.90;;;;;;6241448;22;20543;-68
2022/09/30 15:20:32;;;;;;;1.27;1.27;;;15.60;99.90;;;;;;6242821;23;20785;-70
2022/09/30 15:23:02;;;;;;;1.53;1.43;;;15.60;99.90;;;;;;6242430;23;20414;-69
2022/09/30 15:25:31;;;;;;;1.50;1.13;;;15.60;99.90;;;;;;6241112;23;20932;-68
2022/09/30 15:27:58;;;;;;;0.90;0.90;;;15.50;99.90;;;;;;6241718;22;20441;-69
2022/09/30 15:30:28;;;;;;;1.17;1.17;;;15.50;99.90;;;;;;6242009;23;20784;-69
2022/09/30 15:33:00;;;;;;;0.97;0.97;;;15.40;99.90;;;;;;6241413;23;20961;-70
2022/09/30 15:35:27;;;;;;;1.53;1.53;;;15.40;99.90;;;;;;6243206;23;20421;-69
2022/09/30 15:37:54;;;;;;;2.90;1.57;;;15.40;99.90;;;;;;6242452;22;20746;-68
2022/09/30 15:43:07;;;;;;;1.50;1.50;;;15.20;99.90;;;;;;6215761;23;20459;-68
2022/09/30 15:45:36;;;;;;;3.30;1.27;;;15.20;99.90;;;;;;6242396;23;20412;-67
2022/09/30 15:48:06;;;;;;;1.93;1.93;;;15.10;99.90;;;;;;6242209;22;21082;-68
2022/09/30 15:50:41;;;;;;;2.00;1.10;;;15.10;99.90;;;;;;6242658;23;20561;-68
2022/09/30 15:53:16;;;;;;;1.93;1.40;;;15.00;99.90;;;;;;6242371;23;20411;-68
2022/09/30 15:55:44;;;;;;;1.30;1.30;;;15.00;99.90;;;;;;6242924;23;20406;-67
2022/09/30 15:58:36;;;;;;;1.23;1.23;;;14.90;99.90;;;;;;6241192;22;20443;-68
2022/09/30 16:01:20;;;;;;;1.47;1.47;;;14.90;99.90;;;;;;6241882;23;20399;-69
2022/09/30 16:03:49;;;;;;;6.50;1.83;;;14.80;99.90;;;;;;6240612;23;20411;-67
2022/09/30 16:06:21;;;;;;;1.83;1.47;;;14.80;99.90;;;;;;6252033;23;20412;-68
2022/09/30 16:08:53;;;;;;;1.67;1.57;;;14.70;99.90;;;;;;6242645;22;20495;-67
2022/09/30 16:11:24;;;;;;;1.70;1.60;;;14.60;99.90;;;;;;6241468;23;20485;-68
2022/09/30 16:13:54;;;;;;;1.43;1.43;;;14.60;99.90;;;;;;6242927;23;20461;-68
2022/09/30 16:16:23;;;;;;;2.37;2.27;;;14.50;99.90;;;;;;6241572;23;20458;-69
2022/09/30 16:18:52;;;;;;;1.97;1.83;;;14.50;99.90;;;;;;6243113;22;20533;-69
2022/09/30 16:21:43;;;;;;;3.30;2.00;;;14.40;99.90;;;;;;6242382;23;20422;-68
2022/09/30 16:24:41;;;;;;;2.43;2.33;;;14.30;99.90;;;;;;6243802;23;20458;-68
2022/09/30 16:29:40;;;;;;;1.77;1.73;;;14.20;99.90;;;;;;6240847;23;20507;-70
2022/09/30 16:32:09;;;;;;;1.63;1.63;;;14.10;99.90;;;;;;6243226;23;20422;-71
2022/09/30 16:34:38;;;;;;;1.73;1.73;;;14.10;99.90;;;;;;6242524;23;20423;-69
2022/09/30 16:37:11;;;;;;;1.90;1.90;;;14.00;99.90;;;;;;6243764;23;20431;-70
2022/09/30 16:39:37;;;;;;;2.30;1.87;;;13.90;99.90;;;;;;6213161;23;20407;-71
2022/09/30 16:42:04;;;;;;;2.60;2.50;;;13.90;99.90;;;;;;6213716;23;20427;-69
2022/09/30 16:44:33;;;;;;;1.63;1.63;;;13.80;99.90;;;;;;6212762;23;20518;-70
2022/09/30 16:47:01;;;;;;;2.10;2.10;;;13.80;99.90;;;;;;6213443;23;20921;-70
2022/09/30 16:49:28;;;;;;;2.60;2.47;;;13.70;99.90;;;;;;6211540;23;20443;-69
2022/09/30 16:51:54;;;;;;;2.47;2.40;;;13.60;99.90;;;;;;6213756;23;20448;-70
2022/09/30 16:54:21;;;;;;;2.27;2.20;;;13.50;99.90;;;;;;6211460;23;20428;-70
2022/09/30 16:56:48;;;;;;;1.67;1.67;;;13.40;99.90;;;;;;6211698;23;20423;-70
2022/09/30 16:59:17;;;;;;;3.93;2.50;;;13.30;99.90;;;;;;6212568;23;20438;-69
2022/09/30 17:01:44;;;;;;;1.70;1.70;;;13.20;99.90;;;;;;6211539;23;20490;-70
2022/09/30 17:04:12;;;;;;;2.53;2.53;;;13.20;99.90;;;;;;6210959;23;20429;-70
2022/09/30 17:06:39;;;;;;;2.87;2.77;;;13.10;99.90;;;;;;6209797;23;20898;-70
2022/09/30 17:09:06;;;;;;;3.20;2.90;;;13.00;99.90;;;;;;6212522;23;20770;-70
2022/09/30 17:11:34;;;;;;;2.50;2.40;;;12.80;99.90;;;;;;6211798;23;20450;-70
2022/09/30 17:14:02;;;;;;;2.40;2.30;;;12.80;99.90;;;;;;6210915;23;20948;-69
2022/09/30 17:16:29;;;;;;;3.33;3.23;;;12.80;99.90;;;;;;6211746;23;20423;-70
2022/09/30 17:18:56;;;;;;;2.97;2.73;;;12.70;99.90;;;;;;6213532;23;20451;-70
2022/09/30 17:21:25;;;;;;;1.93;1.93;;;12.60;99.90;;;;;;6212778;23;20553;-70